createdAt,value
2018-11-01T00:01:42.373Z,101863.23
2018-11-01T00:04:10.931Z,101860.77
2018-11-01T00:06:39.548Z,101831.83
2018-11-01T00:09:09.156Z,101862.03
2018-11-01T00:11:37.651Z,101865.59
2018-11-01T00:14:07.034Z,101863.80
2018-11-01T00:16:35.447Z,101865.33
2018-11-01T00:19:03.926Z,101867.27
2018-11-01T00:21:32.599Z,101873.11
2018-11-01T00:24:00.992Z,101880.66
2018-11-01T00:26:29.398Z,101888.22
2018-11-01T00:28:57.952Z,101888.13
2018-11-01T00:31:26.381Z,101889.75
2018-11-01T00:33:54.929Z,101905.20
2018-11-01T00:36:23.890Z,101910.73
2018-11-01T00:38:52.282Z,101925.70
2018-11-01T00:41:20.762Z,101923.41
2018-11-01T00:43:49.450Z,101924.92
2018-11-01T00:46:17.858Z,101936.07
2018-11-01T00:48:46.327Z,101943.39
2018-11-01T00:51:15.394Z,101946.31
2018-11-01T00:53:43.853Z,101949.22
2018-11-01T00:56:12.443Z,101958.97
2018-11-01T00:58:41.024Z,101965.89
2018-11-01T01:01:09.929Z,101953.07
2018-11-01T01:03:38.407Z,101956.88
2018-11-01T01:06:07.042Z,101959.80
2018-11-01T01:08:35.454Z,101966.22
2018-11-01T01:11:03.890Z,101969.63
2018-11-01T01:13:32.946Z,101965.63
2018-11-01T01:16:01.388Z,101976.55
2018-11-01T01:18:29.830Z,101975.65
2018-11-01T01:20:58.773Z,101974.75
2018-11-01T01:23:27.245Z,101984.77
2018-11-01T01:25:55.987Z,101983.96
2018-11-01T01:28:25.056Z,101990.78
2018-11-01T01:30:53.450Z,101987.28
2018-11-01T01:33:21.906Z,101991.19
2018-11-01T01:35:51.112Z,101992.49
2018-11-01T01:38:19.544Z,101994.29
2018-11-01T01:40:47.982Z,101998.70
2018-11-01T01:43:16.878Z,101998.30
2018-11-01T01:45:45.350Z,101989.98
2018-11-01T01:48:15.867Z,101995.28
2018-11-01T01:50:44.872Z,101999.20
2018-11-01T01:53:13.154Z,102000.59
2018-11-01T01:55:41.569Z,101999.30
2018-11-01T01:58:10.206Z,102003.30
2018-11-01T02:00:38.655Z,102008.41
2018-11-01T02:03:07.091Z,101997.89
2018-11-01T02:05:35.957Z,101996.19
2018-11-01T02:08:04.382Z,101994.39
2018-11-01T02:10:32.830Z,101991.38
2018-11-01T02:13:01.422Z,101992.78
2018-11-01T02:15:29.804Z,101995.88
2018-11-01T02:17:58.262Z,102006.40
2018-11-01T02:20:26.858Z,102002.09
2018-11-01T02:22:55.274Z,102010.00
2018-11-01T02:25:23.686Z,102022.33
2018-11-01T02:28:04.231Z,102015.81
2018-11-01T02:30:32.723Z,102019.31
2018-11-01T02:33:01.115Z,102019.72
2018-11-01T02:35:29.674Z,102026.83
2018-11-01T02:37:58.532Z,102023.72
2018-11-01T02:40:26.824Z,102039.95
2018-11-01T02:42:55.591Z,102052.99
2018-11-01T02:45:24.977Z,102035.95
2018-11-01T02:47:53.375Z,102040.36
2018-11-01T02:50:22.132Z,102048.18
2018-11-01T02:52:51.146Z,102047.37
2018-11-01T02:55:19.536Z,102049.08
2018-11-01T02:57:48.037Z,102056.09
2018-11-01T03:00:17.196Z,102043.09
2018-11-01T03:02:45.606Z,102071.93
2018-11-01T03:05:14.649Z,102072.42
2018-11-01T03:07:43.197Z,102071.53
2018-11-01T03:10:12.950Z,102073.33
2018-11-01T03:12:42.207Z,102074.23
2018-11-01T03:15:11.878Z,102077.23
2018-11-01T03:17:40.287Z,102079.05
2018-11-01T03:20:10.102Z,102075.94
2018-11-01T03:22:38.744Z,102078.95
2018-11-01T03:25:07.811Z,102080.25
2018-11-01T03:27:36.773Z,102089.47
2018-11-01T03:30:05.883Z,102085.16
2018-11-01T03:32:34.263Z,102077.83
2018-11-01T03:35:03.052Z,102079.64
2018-11-01T03:37:31.898Z,102083.64
2018-11-01T03:40:00.412Z,102086.34
2018-11-01T03:42:29.114Z,102084.64
2018-11-01T03:44:57.852Z,102086.44
2018-11-01T03:47:26.225Z,102082.53
2018-11-01T03:49:54.710Z,102084.23
2018-11-01T03:52:23.350Z,102093.36
2018-11-01T03:54:51.742Z,102090.76
2018-11-01T03:57:20.317Z,102101.69
2018-11-01T03:59:48.860Z,102099.08
2018-11-01T04:02:17.503Z,102106.90
2018-11-01T04:04:45.975Z,102108.70
2018-11-01T04:07:14.587Z,102109.51
2018-11-01T04:09:42.975Z,102117.33
2018-11-01T04:12:11.814Z,102123.34
2018-11-01T04:14:40.650Z,102099.91
2018-11-01T04:17:09.187Z,102126.05
2018-11-01T04:19:37.673Z,102123.84
2018-11-01T04:22:07.201Z,102129.96
2018-11-01T04:24:37.130Z,102134.18
2018-11-01T04:27:06.372Z,102147.31
2018-11-01T04:29:36.023Z,102146.01
2018-11-01T04:32:05.082Z,102133.88
2018-11-01T04:34:33.703Z,102136.08
2018-11-01T04:37:02.248Z,102149.21
2018-11-01T04:39:30.650Z,102147.01
2018-11-01T04:41:59.453Z,102151.42
2018-11-01T04:44:27.941Z,102164.45
2018-11-01T04:46:56.346Z,102165.26
2018-11-01T04:49:25.163Z,102170.97
2018-11-01T04:51:53.982Z,102183.20
2018-11-01T04:54:22.426Z,102189.72
2018-11-01T04:56:51.216Z,102191.93
2018-11-01T04:59:19.730Z,102201.55
2018-11-01T05:01:48.132Z,102196.74
2018-11-01T05:04:16.966Z,102198.85
2018-11-01T05:06:45.999Z,102203.06
2018-11-01T05:09:14.398Z,102197.75
2018-11-01T05:11:43.321Z,102210.69
2018-11-01T05:14:11.834Z,102202.37
2018-11-01T05:16:40.210Z,102203.27
2018-11-01T05:19:09.182Z,102206.28
2018-11-01T05:21:37.899Z,102208.08
2018-11-01T05:24:06.322Z,102206.68
2018-11-01T05:26:35.446Z,102217.51
2018-11-01T05:29:03.989Z,102230.05
2018-11-01T05:31:32.590Z,102231.45
2018-11-01T05:34:01.526Z,102238.88
2018-11-01T05:36:30.086Z,102240.57
2018-11-01T05:38:58.571Z,102235.36
2018-11-01T05:41:27.078Z,102234.45
2018-11-01T05:43:56.019Z,102245.69
2018-11-01T05:46:24.465Z,102250.91
2018-11-01T05:48:53.385Z,102261.73
2018-11-01T05:51:22.079Z,102257.42
2018-11-01T05:53:51.133Z,102256.52
2018-11-01T05:56:19.730Z,102254.02
2018-11-01T05:58:48.757Z,102262.33
2018-11-01T06:01:21.462Z,102260.13
2018-11-01T06:03:50.126Z,102264.55
2018-11-01T06:06:18.577Z,102263.23
2018-11-01T06:08:48.737Z,102265.95
2018-11-01T06:11:20.292Z,102266.64
2018-11-01T06:13:48.761Z,102261.43
2018-11-01T06:16:17.494Z,102264.94
2018-11-01T06:18:46.197Z,102257.63
2018-11-01T06:21:14.651Z,102256.02
2018-11-01T06:23:43.218Z,102253.51
2018-11-01T06:26:11.738Z,102255.72
2018-11-01T06:28:40.185Z,102247.99
2018-11-01T06:31:11.730Z,102250.70
2018-11-01T06:33:40.249Z,102249.89
2018-11-01T06:36:12.491Z,102255.71
2018-11-01T06:38:41.209Z,102247.59
2018-11-01T06:41:10.425Z,102255.20
2018-11-01T06:43:39.519Z,102260.13
2018-11-01T06:46:08.180Z,102264.13
2018-11-01T06:48:36.613Z,102258.61
2018-11-01T06:51:05.875Z,102263.83
2018-11-01T06:53:34.649Z,102265.94
2018-11-01T06:56:03.083Z,102271.25
2018-11-01T06:58:32.658Z,102267.34
2018-11-01T07:01:01.237Z,102262.33
2018-11-01T07:03:29.677Z,102273.76
2018-11-01T07:05:58.609Z,102263.83
2018-11-01T07:08:27.325Z,102267.34
2018-11-01T07:10:55.771Z,102268.73
2018-11-01T07:13:24.606Z,102270.55
2018-11-01T07:15:53.330Z,102135.72
2018-11-01T07:18:21.796Z,102270.24
2018-11-01T07:20:50.357Z,102279.77
2018-11-01T07:23:19.387Z,102273.34
2018-11-01T07:25:47.939Z,102272.64
2018-11-01T07:28:16.414Z,102273.83
2018-11-01T07:30:45.137Z,102274.72
2018-11-01T07:33:13.625Z,102278.43
2018-11-01T07:35:42.174Z,102265.48
2018-11-01T07:38:10.701Z,102267.19
2018-11-01T07:40:39.216Z,102263.37
2018-11-01T07:43:07.825Z,102255.33
2018-11-01T07:45:37.257Z,102249.00
2018-11-01T07:48:06.494Z,102245.48
2018-11-01T07:50:35.194Z,102246.98
2018-11-01T07:53:03.735Z,102247.27
2018-11-01T07:55:32.145Z,102247.15
2018-11-01T07:58:00.769Z,102246.63
2018-11-01T08:00:29.761Z,102251.02
2018-11-01T08:02:58.190Z,102246.13
2018-11-01T08:05:27.073Z,102240.48
2018-11-01T08:07:55.773Z,102248.62
2018-11-01T08:10:24.240Z,102247.73
2018-11-01T08:12:52.848Z,102253.37
2018-11-01T08:15:21.977Z,102253.81
2018-11-01T08:17:50.446Z,102256.56
2018-11-01T08:20:19.326Z,102261.85
2018-11-01T08:22:47.955Z,102255.55
2018-11-01T08:25:16.452Z,102255.81
2018-11-01T08:27:45.182Z,102259.64
2018-11-01T08:30:15.966Z,102255.09
2018-11-01T08:32:44.415Z,102260.39
2018-11-01T08:35:14.601Z,102262.41
2018-11-01T08:37:43.917Z,102270.33
2018-11-01T08:40:12.761Z,102269.20
2018-11-01T08:42:42.429Z,102241.69
2018-11-01T08:45:12.521Z,102273.67
2018-11-01T08:47:41.678Z,102274.02
2018-11-01T08:50:12.246Z,102277.08
2018-11-01T08:52:41.547Z,102273.22
2018-11-01T08:55:10.579Z,102270.17
2018-11-01T08:57:39.633Z,102265.27
2018-11-01T09:00:08.841Z,102265.09
2018-11-01T09:02:37.321Z,102262.73
2018-11-01T09:05:07.432Z,102259.62
2018-11-01T09:07:36.093Z,102265.39
2018-11-01T09:10:06.575Z,102270.43
2018-11-01T09:12:35.337Z,102276.44
2018-11-01T09:15:04.054Z,102278.69
2018-11-01T09:17:32.509Z,102275.62
2018-11-01T09:20:01.049Z,102280.45
2018-11-01T09:22:29.901Z,102281.64
2018-11-01T09:24:58.385Z,102279.29
2018-11-01T09:27:27.765Z,102280.45
2018-11-01T09:29:56.571Z,102287.47
2018-11-01T09:32:25.098Z,102289.98
2018-11-01T09:34:53.646Z,102291.09
2018-11-01T09:37:22.390Z,102299.80
2018-11-01T09:39:50.831Z,102299.84
2018-11-01T09:42:19.557Z,102306.40
2018-11-01T09:44:48.071Z,102310.49
2018-11-01T09:47:16.885Z,102312.37
2018-11-01T09:49:45.309Z,102310.16
2018-11-01T09:52:14.301Z,102303.32
2018-11-01T09:54:42.912Z,102307.77
2018-11-01T09:57:11.657Z,102299.52
2018-11-01T09:59:40.278Z,102301.18
2018-11-01T10:02:08.737Z,102309.30
2018-11-01T10:04:37.782Z,102300.87
2018-11-01T10:07:06.435Z,102306.42
2018-11-01T10:09:35.048Z,102305.78
2018-11-01T10:12:03.782Z,102305.05
2018-11-01T10:14:32.313Z,102300.22
2018-11-01T10:17:01.106Z,102301.20
2018-11-01T10:19:29.532Z,102295.03
2018-11-01T10:21:58.648Z,102295.59
2018-11-01T10:24:27.090Z,102295.76
2018-11-01T10:26:55.929Z,102288.38
2018-11-01T10:29:24.429Z,102282.97
2018-11-01T10:31:52.880Z,102283.46
2018-11-01T10:34:22.155Z,102259.00
2018-11-01T10:36:50.821Z,102286.83
2018-11-01T10:39:19.933Z,102292.41
2018-11-01T10:41:48.926Z,102291.84
2018-11-01T10:44:17.672Z,102287.42
2018-11-01T10:46:46.121Z,102296.42
2018-11-01T10:49:15.078Z,102284.85
2018-11-01T10:51:43.622Z,102285.75
2018-11-01T10:54:12.284Z,102288.53
2018-11-01T10:56:40.845Z,102286.47
2018-11-01T10:59:09.888Z,102285.62
2018-11-01T11:01:42.709Z,102282.89
2018-11-01T11:04:11.498Z,102272.09
2018-11-01T11:06:40.038Z,102273.63
2018-11-01T11:09:09.777Z,102270.55
2018-11-01T11:11:38.330Z,102267.69
2018-11-01T11:14:07.477Z,102263.09
2018-11-01T11:16:36.366Z,102261.27
2018-11-01T11:19:05.143Z,102254.05
2018-11-01T11:21:33.658Z,102253.39
2018-11-01T11:24:02.414Z,102257.56
2018-11-01T11:26:31.138Z,102256.00
2018-11-01T11:28:59.657Z,102241.73
2018-11-01T11:31:28.202Z,102235.89
2018-11-01T11:33:56.994Z,102228.09
2018-11-01T11:36:25.622Z,102222.64
2018-11-01T11:38:54.586Z,102216.31
2018-11-01T11:41:23.257Z,102219.19
2018-11-01T11:43:51.694Z,102221.03
2018-11-01T11:46:20.580Z,102210.78
2018-11-01T11:48:49.105Z,102205.92
2018-11-01T11:51:18.277Z,102206.34
2018-11-01T11:53:47.253Z,102202.86
2018-11-01T11:56:16.327Z,102200.41
2018-11-01T11:58:44.768Z,102191.84
2018-11-01T12:01:13.418Z,102183.81
2018-11-01T12:03:42.345Z,102178.46
2018-11-01T12:06:10.840Z,102178.04
2018-11-01T12:08:39.669Z,102169.66
2018-11-01T12:11:08.405Z,102166.92
2018-11-01T12:13:36.849Z,102173.09
2018-11-01T12:16:06.097Z,102170.99
2018-11-01T12:18:35.093Z,102164.55
2018-11-01T12:21:03.549Z,102171.02
2018-11-01T12:23:32.410Z,102168.03
2018-11-01T12:26:00.969Z,102170.36
2018-11-01T12:28:29.536Z,102170.41
2018-11-01T12:30:58.449Z,102170.33
2018-11-01T12:33:26.997Z,102176.05
2018-11-01T12:35:55.467Z,102169.14
2018-11-01T12:38:24.265Z,102168.81
2018-11-01T12:40:53.237Z,102161.30
2018-11-01T12:43:21.708Z,102163.23
2018-11-01T12:45:50.572Z,102166.95
2018-11-01T12:48:19.601Z,102167.91
2018-11-01T12:50:48.046Z,102162.77
2018-11-01T12:53:16.582Z,102162.62
2018-11-01T12:55:45.105Z,102161.30
2018-11-01T12:58:13.727Z,102151.03
2018-11-01T13:00:42.408Z,102145.30
2018-11-01T13:03:11.413Z,102140.92
2018-11-01T13:05:40.229Z,102140.39
2018-11-01T13:08:09.104Z,102138.52
2018-11-01T13:10:37.816Z,102138.43
2018-11-01T13:13:06.293Z,102136.77
2018-11-01T13:15:35.093Z,102136.00
2018-11-01T13:18:03.865Z,102139.00
2018-11-01T13:20:32.287Z,102146.29
2018-11-01T13:23:00.904Z,102149.11
2018-11-01T13:25:29.576Z,102154.02
2018-11-01T13:27:58.005Z,102154.64
2018-11-01T13:30:26.907Z,102151.38
2018-11-01T13:32:55.652Z,102160.00
2018-11-01T13:35:24.110Z,102154.31
2018-11-01T13:37:52.654Z,102154.85
2018-11-01T13:40:21.798Z,102151.23
2018-11-01T13:42:49.851Z,102145.05
2018-11-01T13:45:18.730Z,102148.81
2018-11-01T13:47:47.493Z,102151.47
2018-11-01T13:50:15.894Z,102155.77
2018-11-01T13:52:45.077Z,102158.87
2018-11-01T13:55:13.910Z,102164.40
2018-11-01T13:57:42.387Z,102171.43
2018-11-01T14:00:12.780Z,102170.95
2018-11-01T14:02:43.208Z,102177.11
2018-11-01T14:05:14.916Z,102171.40
2018-11-01T14:07:43.951Z,102172.64
2018-11-01T14:10:13.656Z,102186.16
2018-11-01T14:12:42.221Z,102174.28
2018-11-01T14:15:11.397Z,102180.18
2018-11-01T14:17:39.921Z,102185.09
2018-11-01T14:20:10.077Z,102185.01
2018-11-01T14:22:38.546Z,102169.55
2018-11-01T14:25:08.162Z,102165.37
2018-11-01T14:27:38.051Z,102173.95
2018-11-01T14:30:10.063Z,102176.16
2018-11-01T14:32:39.094Z,102174.52
2018-11-01T14:35:07.785Z,102178.11
2018-11-01T14:37:36.567Z,102190.53
2018-11-01T14:40:06.691Z,102191.82
2018-11-01T14:42:35.191Z,102187.88
2018-11-01T14:45:03.789Z,102183.52
2018-11-01T14:47:32.330Z,102192.73
2018-11-01T14:50:00.777Z,102200.64
2018-11-01T14:52:30.037Z,102197.19
2018-11-01T14:54:59.754Z,102190.30
2018-11-01T14:57:28.720Z,102186.92
2018-11-01T14:59:56.431Z,102178.91
2018-11-01T15:02:25.167Z,102172.11
2018-11-01T15:04:53.606Z,102167.92
2018-11-01T15:07:22.285Z,102160.39
2018-11-01T15:09:50.973Z,102157.52
2018-11-01T15:12:19.401Z,102159.05
2018-11-01T15:14:48.331Z,102152.63
2018-11-01T15:17:16.869Z,102152.77
2018-11-01T15:19:45.503Z,102147.67
2018-11-01T15:22:14.028Z,102142.91
2018-11-01T15:24:42.587Z,102137.00
2018-11-01T15:27:11.039Z,102138.45
2018-11-01T15:29:39.593Z,102134.84
2018-11-01T15:32:08.474Z,102142.41
2018-11-01T15:34:36.923Z,102139.20
2018-11-01T15:37:05.475Z,102129.57
2018-11-01T15:39:34.317Z,102042.66
2018-11-01T15:42:02.770Z,102132.68
2018-11-01T15:44:31.426Z,102133.89
2018-11-01T15:47:00.051Z,102123.67
2018-11-01T15:49:28.482Z,102114.84
2018-11-01T15:51:57.433Z,102114.66
2018-11-01T15:54:26.046Z,102115.88
2018-11-01T15:56:54.478Z,102107.45
2018-11-01T15:59:23.155Z,102116.85
2018-11-01T16:01:51.731Z,102123.11
2018-11-01T16:04:20.310Z,102108.75
2018-11-01T16:06:49.185Z,102103.03
2018-11-01T16:09:17.846Z,102098.52
2018-11-01T16:11:46.307Z,102094.11
2018-11-01T16:14:14.931Z,102090.42
2018-11-01T16:16:43.611Z,102086.81
2018-11-01T16:19:12.426Z,102092.26
2018-11-01T16:21:41.257Z,102093.97
2018-11-01T16:24:10.062Z,102096.27
2018-11-01T16:26:38.588Z,102099.38
2018-11-01T16:29:07.459Z,102093.84
2018-11-01T16:31:36.133Z,102083.67
2018-11-01T16:34:04.714Z,102090.78
2018-11-01T16:36:33.439Z,102082.45
2018-11-01T16:39:02.117Z,102076.73
2018-11-01T16:41:30.665Z,102070.84
2018-11-01T16:43:59.485Z,102076.06
2018-11-01T16:46:28.630Z,102079.58
2018-11-01T16:48:57.238Z,102075.34
2018-11-01T16:51:26.237Z,102080.84
2018-11-01T16:53:54.934Z,102071.88
2018-11-01T16:56:23.445Z,102064.14
2018-11-01T16:58:52.045Z,102070.35
2018-11-01T17:01:20.649Z,102069.28
2018-11-01T17:03:49.138Z,102075.98
2018-11-01T17:06:17.825Z,102071.35
2018-11-01T17:08:46.428Z,102072.34
2018-11-01T17:11:14.919Z,102069.81
2018-11-01T17:13:43.452Z,102068.19
2018-11-01T17:16:12.331Z,102071.39
2018-11-01T17:18:40.789Z,102076.30
2018-11-01T17:21:09.552Z,102078.77
2018-11-01T17:23:38.388Z,102071.83
2018-11-01T17:26:06.837Z,102064.48
2018-11-01T17:28:36.722Z,102061.56
2018-11-01T17:31:05.515Z,102053.41
2018-11-01T17:33:33.997Z,102048.77
2018-11-01T17:36:02.554Z,102057.09
2018-11-01T17:38:31.160Z,102056.38
2018-11-01T17:40:59.618Z,102050.42
2018-11-01T17:43:28.521Z,102037.94
2018-11-01T17:45:57.202Z,102035.50
2018-11-01T17:48:25.623Z,102039.09
2018-11-01T17:50:54.141Z,102026.93
2018-11-01T17:53:22.722Z,102029.22
2018-11-01T17:55:51.172Z,102024.08
2018-11-01T17:58:19.725Z,102031.72
2018-11-01T18:00:48.391Z,102029.69
2018-11-01T18:03:16.829Z,102031.56
2018-11-01T18:05:45.353Z,102022.83
2018-11-01T18:08:14.467Z,102020.70
2018-11-01T18:10:42.905Z,102020.30
2018-11-01T18:13:11.429Z,102018.59
2018-11-01T18:15:40.173Z,102016.87
2018-11-01T18:18:08.622Z,102008.95
2018-11-01T18:20:37.282Z,102011.97
2018-11-01T18:23:06.073Z,102005.03
2018-11-01T18:25:38.667Z,101996.86
2018-11-01T18:28:07.539Z,101993.92
2018-11-01T18:30:36.766Z,101989.52
2018-11-01T18:33:05.767Z,101991.80
2018-11-01T18:35:34.535Z,101994.50
2018-11-01T18:38:03.093Z,101992.78
2018-11-01T18:40:31.581Z,101993.60
2018-11-01T18:43:00.683Z,101990.58
2018-11-01T18:45:29.170Z,101993.28
2018-11-01T18:47:57.650Z,101994.34
2018-11-01T18:50:26.691Z,101983.16
2018-11-01T18:52:55.159Z,101971.56
2018-11-01T18:55:23.698Z,101973.44
2018-11-01T18:57:53.020Z,101974.09
2018-11-01T19:00:21.493Z,101971.56
2018-11-01T19:02:50.056Z,101969.03
2018-11-01T19:05:18.769Z,101972.22
2018-11-01T19:07:47.237Z,101964.05
2018-11-01T19:10:16.692Z,101938.55
2018-11-01T19:12:45.619Z,101933.57
2018-11-01T19:15:14.882Z,101953.75
2018-11-01T19:17:43.405Z,101956.12
2018-11-01T19:20:12.857Z,101948.02
2018-11-01T19:22:41.316Z,101955.13
2018-11-01T19:25:10.511Z,101946.95
2018-11-01T19:27:39.847Z,101960.94
2018-11-01T19:30:11.893Z,101941.31
2018-11-01T19:32:40.698Z,101932.23
2018-11-01T19:35:10.426Z,101933.88
2018-11-01T19:37:38.927Z,101938.70
2018-11-01T19:40:13.329Z,101939.19
2018-11-01T19:42:41.797Z,101937.72
2018-11-01T19:45:10.470Z,101941.16
2018-11-01T19:47:39.660Z,101935.44
2018-11-01T19:50:09.901Z,101924.48
2018-11-01T19:52:38.386Z,101914.76
2018-11-01T19:55:07.261Z,101922.03
2018-11-01T19:57:36.881Z,101924.57
2018-11-01T20:00:06.975Z,101919.59
2018-11-01T20:02:35.718Z,101904.55
2018-11-01T20:05:04.149Z,101912.41
2018-11-01T20:07:32.689Z,101896.22
2018-11-01T20:10:01.583Z,101897.94
2018-11-01T20:12:30.539Z,101889.69
2018-11-01T20:14:59.099Z,101896.30
2018-11-01T20:17:27.873Z,101905.95
2018-11-01T20:19:56.340Z,101904.23
2018-11-01T20:22:24.821Z,101902.52
2018-11-01T20:24:53.426Z,101900.72
2018-11-01T20:27:21.931Z,101899.25
2018-11-01T20:29:50.513Z,101892.62
2018-11-01T20:32:19.121Z,101891.16
2018-11-01T20:34:47.573Z,101889.78
2018-11-01T20:37:16.118Z,101886.34
2018-11-01T20:39:45.121Z,101883.23
2018-11-01T20:42:13.619Z,101862.16
2018-11-01T20:44:42.114Z,101854.23
2018-11-01T20:47:11.173Z,101858.57
2018-11-01T20:49:40.654Z,101866.34
2018-11-01T20:52:09.231Z,101866.00
2018-11-01T20:54:37.955Z,101855.95
2018-11-01T20:57:06.517Z,101870.25
2018-11-01T20:59:35.096Z,101867.16
2018-11-01T21:02:03.977Z,101864.45
2018-11-01T21:04:32.453Z,101860.61
2018-11-01T21:07:01.122Z,101869.36
2018-11-01T21:09:29.821Z,101850.97
2018-11-01T21:18:43.450Z,101853.19
2018-11-01T21:21:11.918Z,101842.16
2018-11-01T21:23:41.903Z,101842.25
2018-11-01T21:26:11.242Z,101835.14
2018-11-01T21:28:39.710Z,101838.24
2018-11-01T21:31:08.518Z,101832.69
2018-11-01T21:33:37.255Z,101830.89
2018-11-01T21:36:06.017Z,101822.64
2018-11-01T21:38:34.427Z,101816.59
2018-11-01T21:41:03.050Z,101813.08
2018-11-01T21:43:31.590Z,101822.80
2018-11-01T21:46:00.189Z,101819.62
2018-11-01T21:48:28.776Z,101820.59
2018-11-01T21:50:57.237Z,101816.34
2018-11-01T21:53:26.071Z,101817.16
2018-11-01T21:55:54.602Z,101817.73
2018-11-01T21:58:23.114Z,101811.84
2018-11-01T22:00:51.837Z,101824.09
2018-11-01T22:03:20.642Z,101820.42
2018-11-01T22:05:49.105Z,101807.51
2018-11-01T22:08:17.649Z,101807.57
2018-11-01T22:10:46.221Z,101798.02
2018-11-01T22:13:14.673Z,101812.06
2018-11-01T22:15:43.343Z,101798.81
2018-11-01T22:18:12.077Z,101771.02
2018-11-01T22:20:40.680Z,101754.25
2018-11-01T22:23:09.194Z,101740.42
2018-11-01T22:25:38.117Z,101754.66
2018-11-01T22:28:06.881Z,101754.77
2018-11-01T22:30:35.462Z,101753.61
2018-11-01T22:33:04.025Z,101757.12
2018-11-01T22:35:32.509Z,101740.58
2018-11-01T22:38:01.159Z,101722.90
2018-11-01T22:40:29.937Z,101716.51
2018-11-01T22:42:58.379Z,101714.57
2018-11-01T22:45:27.214Z,101710.98
2018-11-01T22:47:55.837Z,101723.16
2018-11-01T22:52:59.510Z,101711.24
2018-11-01T22:55:27.973Z,101698.98
2018-11-01T22:57:56.498Z,101699.33
2018-11-01T23:00:25.244Z,101687.97
2018-11-01T23:02:53.686Z,101686.66
2018-11-01T23:05:22.201Z,101679.64
2018-11-01T23:07:50.789Z,101668.69
2018-11-01T23:10:19.234Z,101674.41
2018-11-01T23:12:47.818Z,101666.15
2018-11-01T23:15:16.458Z,101674.00
2018-11-01T23:17:44.925Z,101666.90
2018-11-01T23:20:14.039Z,101679.56
2018-11-01T23:22:42.852Z,101668.77
2018-11-01T23:25:11.418Z,101663.53
2018-11-01T23:27:40.153Z,101666.15
2018-11-01T23:30:08.861Z,101664.91
2018-11-01T23:32:37.316Z,101660.17
2018-11-01T23:35:06.217Z,101654.12
2018-11-01T23:37:40.057Z,101654.12
2018-11-01T23:40:13.763Z,101655.42
2018-11-01T23:42:47.602Z,101645.38
2018-11-01T23:45:21.401Z,101635.81
2018-11-01T23:47:55.445Z,101635.47
2018-11-01T23:50:29.294Z,101625.49
2018-11-01T23:52:59.530Z,101613.31
2018-11-01T23:55:27.994Z,101620.41
2018-11-01T23:57:56.889Z,101612.63
